sensor_id;sensor_type;location;lat;lon;timestamp;pressure;altitude;pressure_sealevel;temperature;humidity
42705;BME280;28342;42.594;23.414;2022-12-10T00:02:19;93858.16;;;9.19;86.59
42705;BME280;28342;42.594;23.414;2022-12-10T00:04:44;93857.34;;;9.19;86.19
42705;BME280;28342;42.594;23.414;2022-12-10T00:07:10;93867.78;;;9.24;86.24
42705;BME280;28342;42.594;23.414;2022-12-10T00:09:35;93868.75;;;9.19;86.64
42705;BME280;28342;42.594;23.414;2022-12-10T00:12:01;93856.91;;;9.08;87.04
42705;BME280;28342;42.594;23.414;2022-12-10T00:14:26;93866.72;;;9.08;87.30
42705;BME280;28342;42.594;23.414;2022-12-10T00:16:52;93846.00;;;9.01;87.30
42705;BME280;28342;42.594;23.414;2022-12-10T00:19:17;93837.16;;;8.97;87.72
42705;BME280;28342;42.594;23.414;2022-12-10T00:21:43;93815.22;;;8.88;88.26
42705;BME280;28342;42.594;23.414;2022-12-10T00:24:09;93834.06;;;9.04;87.79
42705;BME280;28342;42.594;23.414;2022-12-10T00:26:36;93827.97;;;9.03;88.09
42705;BME280;28342;42.594;23.414;2022-12-10T00:29:04;93837.31;;;9.01;89.09
42705;BME280;28342;42.594;23.414;2022-12-10T00:31:32;93809.94;;;8.88;90.10
42705;BME280;28342;42.594;23.414;2022-12-10T00:34:00;93816.63;;;8.94;89.87
42705;BME280;28342;42.594;23.414;2022-12-10T00:36:34;93825.47;;;9.15;88.82
42705;BME280;28342;42.594;23.414;2022-12-10T00:39:00;93840.53;;;9.32;88.59
42705;BME280;28342;42.594;23.414;2022-12-10T00:41:26;93835.25;;;9.23;88.73
42705;BME280;28342;42.594;23.414;2022-12-10T00:43:51;93844.44;;;9.26;88.96
42705;BME280;28342;42.594;23.414;2022-12-10T00:46:18;93815.34;;;9.26;88.48
42705;BME280;28342;42.594;23.414;2022-12-10T00:48:43;93827.97;;;9.20;88.77
42705;BME280;28342;42.594;23.414;2022-12-10T00:51:16;93831.03;;;9.31;89.26
42705;BME280;28342;42.594;23.414;2022-12-10T00:53:43;93831.03;;;9.40;88.92
42705;BME280;28342;42.594;23.414;2022-12-10T00:56:10;93829.75;;;9.46;88.67
42705;BME280;28342;42.594;23.414;2022-12-10T00:58:37;93822.75;;;9.50;89.00
42705;BME280;28342;42.594;23.414;2022-12-10T01:01:11;93829.69;;;9.63;88.95
42705;BME280;28342;42.594;23.414;2022-12-10T01:03:37;93831.41;;;9.68;88.91
42705;BME280;28342;42.594;23.414;2022-12-10T01:06:14;93831.81;;;9.78;88.13
42705;BME280;28342;42.594;23.414;2022-12-10T01:08:40;93827.91;;;9.84;87.98
42705;BME280;28342;42.594;23.414;2022-12-10T01:11:06;93819.84;;;9.81;87.98
42705;BME280;28342;42.594;23.414;2022-12-10T01:13:32;93834.88;;;9.98;87.58
42705;BME280;28342;42.594;23.414;2022-12-10T01:16:00;93838.25;;;10.07;87.40
42705;BME280;28342;42.594;23.414;2022-12-10T01:18:26;93844.66;;;10.06;87.56
42705;BME280;28342;42.594;23.414;2022-12-10T01:20:51;93848.16;;;10.27;84.99
42705;BME280;28342;42.594;23.414;2022-12-10T01:23:17;93829.47;;;10.74;82.43
42705;BME280;28342;42.594;23.414;2022-12-10T01:25:42;93832.72;;;11.13;80.28
42705;BME280;28342;42.594;23.414;2022-12-10T01:28:07;93818.63;;;11.33;80.30
42705;BME280;28342;42.594;23.414;2022-12-10T01:30:33;93822.25;;;11.74;77.70
42705;BME280;28342;42.594;23.414;2022-12-10T01:32:58;93808.34;;;11.89;76.73
42705;BME280;28342;42.594;23.414;2022-12-10T01:35:24;93816.34;;;12.25;74.27
42705;BME280;28342;42.594;23.414;2022-12-10T01:37:49;93805.47;;;12.43;74.73
42705;BME280;28342;42.594;23.414;2022-12-10T01:40:14;93803.47;;;12.27;74.86
42705;BME280;28342;42.594;23.414;2022-12-10T01:42:40;93810.34;;;12.04;75.28
42705;BME280;28342;42.594;23.414;2022-12-10T01:45:10;93792.38;;;11.77;75.47
42705;BME280;28342;42.594;23.414;2022-12-10T01:47:36;93809.47;;;11.88;75.68
42705;BME280;28342;42.594;23.414;2022-12-10T01:50:02;93805.47;;;11.94;75.46
42705;BME280;28342;42.594;23.414;2022-12-10T01:52:27;93823.19;;;12.02;76.16
42705;BME280;28342;42.594;23.414;2022-12-10T01:54:53;93794.63;;;11.87;76.65
42705;BME280;28342;42.594;23.414;2022-12-10T01:57:25;93799.63;;;12.13;74.70
42705;BME280;28342;42.594;23.414;2022-12-10T01:59:59;93811.91;;;12.30;73.99
42705;BME280;28342;42.594;23.414;2022-12-10T02:02:28;93828.97;;;12.41;73.84
42705;BME280;28342;42.594;23.414;2022-12-10T02:05:09;93823.41;;;12.46;72.86
42705;BME280;28342;42.594;23.414;2022-12-10T02:10:19;93830.06;;;12.92;71.53
42705;BME280;28342;42.594;23.414;2022-12-10T02:13:00;93825.06;;;12.91;71.23
42705;BME280;28342;42.594;23.414;2022-12-10T02:15:40;93824.59;;;13.01;71.10
42705;BME280;28342;42.594;23.414;2022-12-10T02:18:08;93845.31;;;13.20;71.18
42705;BME280;28342;42.594;23.414;2022-12-10T02:20:39;93843.28;;;13.16;70.67
42705;BME280;28342;42.594;23.414;2022-12-10T02:23:09;93828.75;;;13.14;71.29
42705;BME280;28342;42.594;23.414;2022-12-10T02:25:49;93817.22;;;13.22;71.33
42705;BME280;28342;42.594;23.414;2022-12-10T02:31:07;93828.75;;;13.14;71.44
42705;BME280;28342;42.594;23.414;2022-12-10T02:33:39;93804.41;;;13.00;70.23
42705;BME280;28342;42.594;23.414;2022-12-10T02:36:06;93835.28;;;13.29;69.91
42705;BME280;28342;42.594;23.414;2022-12-10T02:38:36;93807.63;;;13.33;69.34
42705;BME280;28342;42.594;23.414;2022-12-10T02:41:10;93811.16;;;13.37;70.07
42705;BME280;28342;42.594;23.414;2022-12-10T02:43:36;93801.78;;;13.43;69.58
42705;BME280;28342;42.594;23.414;2022-12-10T02:46:03;93795.19;;;13.37;69.59
42705;BME280;28342;42.594;23.414;2022-12-10T02:48:31;93775.69;;;13.33;70.09
42705;BME280;28342;42.594;23.414;2022-12-10T02:50:57;93776.97;;;13.39;70.37
42705;BME280;28342;42.594;23.414;2022-12-10T02:53:23;93787.78;;;13.46;69.18
42705;BME280;28342;42.594;23.414;2022-12-10T03:07:11;93806.91;;;13.49;68.24
42705;BME280;28342;42.594;23.414;2022-12-10T03:09:46;93811.63;;;13.55;68.65
42705;BME280;28342;42.594;23.414;2022-12-10T03:12:24;93818.56;;;13.60;68.39
42705;BME280;28342;42.594;23.414;2022-12-10T03:14:52;93809.47;;;13.61;68.32
42705;BME280;28342;42.594;23.414;2022-12-10T03:17:20;93809.47;;;13.61;68.74
42705;BME280;28342;42.594;23.414;2022-12-10T03:19:47;93800.28;;;13.58;69.38
42705;BME280;28342;42.594;23.414;2022-12-10T03:22:16;93803.88;;;13.50;68.69
42705;BME280;28342;42.594;23.414;2022-12-10T03:24:43;93780.13;;;13.45;68.52
42705;BME280;28342;42.594;23.414;2022-12-10T03:27:11;93799.75;;;13.53;68.70
42705;BME280;28342;42.594;23.414;2022-12-10T03:29:51;93806.19;;;13.52;69.15
42705;BME280;28342;42.594;23.414;2022-12-10T03:32:18;93774.31;;;13.39;69.17
42705;BME280;28342;42.594;23.414;2022-12-10T03:34:46;93811.63;;;13.55;68.83
42705;BME280;28342;42.594;23.414;2022-12-10T03:37:12;93801.56;;;13.49;68.93
42705;BME280;28342;42.594;23.414;2022-12-10T03:39:38;93779.47;;;13.48;68.51
42705;BME280;28342;42.594;23.414;2022-12-10T03:42:05;93779.13;;;13.50;68.36
42705;BME280;28342;42.594;23.414;2022-12-10T03:44:36;93788.16;;;13.61;68.25
42705;BME280;28342;42.594;23.414;2022-12-10T03:47:04;93786.59;;;13.60;68.43
42705;BME280;28342;42.594;23.414;2022-12-10T03:49:30;93773.88;;;13.53;68.49
42705;BME280;28342;42.594;23.414;2022-12-10T03:51:55;93773.13;;;13.53;69.34
42705;BME280;28342;42.594;23.414;2022-12-10T03:54:21;93770.94;;;13.42;68.78
42705;BME280;28342;42.594;23.414;2022-12-10T03:56:46;93787.63;;;13.55;68.92
42705;BME280;28342;42.594;23.414;2022-12-10T03:59:12;93763.50;;;13.48;69.33
42705;BME280;28342;42.594;23.414;2022-12-10T04:01:38;93761.50;;;13.45;68.84
42705;BME280;28342;42.594;23.414;2022-12-10T04:04:04;93770.72;;;13.63;68.04
42705;BME280;28342;42.594;23.414;2022-12-10T04:06:30;93756.19;;;13.61;68.16
42705;BME280;28342;42.594;23.414;2022-12-10T04:08:56;93765.91;;;13.69;67.92
42705;BME280;28342;42.594;23.414;2022-12-10T04:11:21;93748.44;;;13.56;68.17
42705;BME280;28342;42.594;23.414;2022-12-10T04:13:48;93765.56;;;13.70;68.50
42705;BME280;28342;42.594;23.414;2022-12-10T04:16:32;93750.84;;;13.61;68.34
42705;BME280;28342;42.594;23.414;2022-12-10T04:19:04;93745.69;;;13.68;68.30
42705;BME280;28342;42.594;23.414;2022-12-10T04:21:32;93735.88;;;13.72;67.97
42705;BME280;28342;42.594;23.414;2022-12-10T04:24:20;93713.97;;;13.47;68.52
42705;BME280;28342;42.594;23.414;2022-12-10T04:27:10;93755.66;;;13.71;67.44
42705;BME280;28342;42.594;23.414;2022-12-10T04:29:36;93749.47;;;13.67;67.73
42705;BME280;28342;42.594;23.414;2022-12-10T04:32:02;93753.34;;;13.69;67.89
42705;BME280;28342;42.594;23.414;2022-12-10T04:34:27;93774.06;;;13.76;68.37
42705;BME280;28342;42.594;23.414;2022-12-10T04:36:53;93780.78;;;13.70;68.16
42705;BME280;28342;42.594;23.414;2022-12-10T04:39:18;93796.00;;;13.69;68.37
42705;BME280;28342;42.594;23.414;2022-12-10T04:41:45;93789.19;;;13.72;68.01
42705;BME280;28342;42.594;23.414;2022-12-10T04:44:11;93783.09;;;13.71;69.20
42705;BME280;28342;42.594;23.414;2022-12-10T04:46:37;93780.06;;;13.73;69.62
42705;BME280;28342;42.594;23.414;2022-12-10T04:49:04;93767.53;;;13.58;69.22
42705;BME280;28342;42.594;23.414;2022-12-10T04:51:29;93782.81;;;13.61;70.34
42705;BME280;28342;42.594;23.414;2022-12-10T04:53:55;93782.25;;;13.67;70.18
42705;BME280;28342;42.594;23.414;2022-12-10T04:56:20;93763.56;;;13.52;70.63
42705;BME280;28342;42.594;23.414;2022-12-10T04:58:46;93768.63;;;13.57;70.67
42705;BME280;28342;42.594;23.414;2022-12-10T05:01:12;93762.81;;;13.51;70.36
42705;BME280;28342;42.594;23.414;2022-12-10T05:03:39;93778.69;;;13.48;71.32
42705;BME280;28342;42.594;23.414;2022-12-10T05:06:10;93763.22;;;13.53;70.98
42705;BME280;28342;42.594;23.414;2022-12-10T05:08:37;93760.03;;;13.48;71.35
42705;BME280;28342;42.594;23.414;2022-12-10T05:11:05;93771.31;;;13.57;70.94
42705;BME280;28342;42.594;23.414;2022-12-10T05:13:31;93772.06;;;13.57;70.72
42705;BME280;28342;42.594;23.414;2022-12-10T05:15:57;93755.81;;;13.46;71.16
42705;BME280;28342;42.594;23.414;2022-12-10T05:18:23;93740.72;;;13.51;71.01
42705;BME280;28342;42.594;23.414;2022-12-10T05:20:48;93736.50;;;13.50;71.25
42705;BME280;28342;42.594;23.414;2022-12-10T05:23:14;93727.28;;;13.31;71.95
42705;BME280;28342;42.594;23.414;2022-12-10T05:26:21;93758.47;;;13.46;71.60
42705;BME280;28342;42.594;23.414;2022-12-10T05:28:50;93742.41;;;13.27;72.04
42705;BME280;28342;42.594;23.414;2022-12-10T05:31:23;93753.47;;;13.29;71.99
42705;BME280;28342;42.594;23.414;2022-12-10T05:33:49;93757.88;;;13.37;72.19
42705;BME280;28342;42.594;23.414;2022-12-10T05:36:17;93738.47;;;13.21;72.93
42705;BME280;28342;42.594;23.414;2022-12-10T05:38:43;93745.31;;;13.22;72.21
42705;BME280;28342;42.594;23.414;2022-12-10T05:41:14;93743.09;;;13.24;72.28
42705;BME280;28342;42.594;23.414;2022-12-10T05:43:41;93740.84;;;13.26;72.42
42705;BME280;28342;42.594;23.414;2022-12-10T05:46:10;93763.91;;;13.34;73.23
42705;BME280;28342;42.594;23.414;2022-12-10T05:48:37;93750.34;;;13.11;73.96
42705;BME280;28342;42.594;23.414;2022-12-10T05:51:07;93744.72;;;13.01;74.10
42705;BME280;28342;42.594;23.414;2022-12-10T05:53:34;93774.47;;;13.03;73.88
42705;BME280;28342;42.594;23.414;2022-12-10T05:56:07;93767.34;;;13.07;72.46
42705;BME280;28342;42.594;23.414;2022-12-10T05:58:34;93753.00;;;13.11;72.70
42705;BME280;28342;42.594;23.414;2022-12-10T06:01:00;93735.44;;;12.95;71.96
42705;BME280;28342;42.594;23.414;2022-12-10T06:03:30;93774.97;;;13.21;73.81
42705;BME280;28342;42.594;23.414;2022-12-10T06:05:56;93785.28;;;13.10;75.24
42705;BME280;28342;42.594;23.414;2022-12-10T06:08:22;93782.97;;;13.08;75.37
42705;BME280;28342;42.594;23.414;2022-12-10T06:10:47;93785.19;;;12.78;77.06
42705;BME280;28342;42.594;23.414;2022-12-10T06:13:12;93784.06;;;12.79;76.48
42705;BME280;28342;42.594;23.414;2022-12-10T06:15:39;93764.28;;;12.65;77.50
42705;BME280;28342;42.594;23.414;2022-12-10T06:18:05;93760.34;;;12.46;78.88
42705;BME280;28342;42.594;23.414;2022-12-10T06:20:31;93767.22;;;12.47;79.24
42705;BME280;28342;42.594;23.414;2022-12-10T06:22:56;93772.28;;;12.52;77.78
42705;BME280;28342;42.594;23.414;2022-12-10T06:25:22;93763.59;;;12.68;77.70
42705;BME280;28342;42.594;23.414;2022-12-10T06:27:47;93780.97;;;12.77;77.96
42705;BME280;28342;42.594;23.414;2022-12-10T06:30:13;93779.94;;;12.54;78.54
42705;BME280;28342;42.594;23.414;2022-12-10T06:32:38;93791.75;;;12.16;80.16
42705;BME280;28342;42.594;23.414;2022-12-10T06:35:05;93778.22;;;12.09;80.30
42705;BME280;28342;42.594;23.414;2022-12-10T06:37:31;93779.78;;;11.86;81.51
42705;BME280;28342;42.594;23.414;2022-12-10T06:39:56;93783.28;;;11.65;83.09
42705;BME280;28342;42.594;23.414;2022-12-10T06:42:22;93778.28;;;11.52;83.54
42705;BME280;28342;42.594;23.414;2022-12-10T06:44:47;93765.09;;;11.43;83.82
42705;BME280;28342;42.594;23.414;2022-12-10T06:47:13;93770.00;;;11.53;83.52
42705;BME280;28342;42.594;23.414;2022-12-10T06:49:40;93763.56;;;11.54;83.80
42705;BME280;28342;42.594;23.414;2022-12-10T06:52:05;93748.31;;;11.51;83.70
42705;BME280;28342;42.594;23.414;2022-12-10T06:54:31;93746.28;;;11.48;84.58
42705;BME280;28342;42.594;23.414;2022-12-10T06:56:56;93740.44;;;11.43;84.30
42705;BME280;28342;42.594;23.414;2022-12-10T06:59:22;93779.41;;;11.63;84.65
42705;BME280;28342;42.594;23.414;2022-12-10T07:01:47;93759.00;;;11.43;85.10
42705;BME280;28342;42.594;23.414;2022-12-10T07:04:13;93754.44;;;11.19;85.46
42705;BME280;28342;42.594;23.414;2022-12-10T07:06:38;93776.81;;;11.30;85.86
42705;BME280;28342;42.594;23.414;2022-12-10T07:09:04;93790.88;;;11.43;85.94
42705;BME280;28342;42.594;23.414;2022-12-10T07:11:29;93781.91;;;11.35;85.87
42705;BME280;28342;42.594;23.414;2022-12-10T07:13:57;93791.19;;;11.29;86.07
42705;BME280;28342;42.594;23.414;2022-12-10T07:16:28;93787.63;;;11.25;86.83
42705;BME280;28342;42.594;23.414;2022-12-10T07:18:56;93781.22;;;11.26;86.88
42705;BME280;28342;42.594;23.414;2022-12-10T07:21:22;93787.56;;;11.33;86.49
42705;BME280;28342;42.594;23.414;2022-12-10T07:23:49;93775.03;;;11.22;87.24
42705;BME280;28342;42.594;23.414;2022-12-10T07:26:14;93767.06;;;11.22;87.19
42705;BME280;28342;42.594;23.414;2022-12-10T07:28:40;93762.19;;;11.24;86.14
42705;BME280;28342;42.594;23.414;2022-12-10T07:31:07;93765.50;;;11.33;86.74
42705;BME280;28342;42.594;23.414;2022-12-10T07:33:36;93748.53;;;11.01;88.04
42705;BME280;28342;42.594;23.414;2022-12-10T07:36:10;93752.25;;;11.21;87.95
42705;BME280;28342;42.594;23.414;2022-12-10T07:38:36;93755.53;;;11.18;87.95
42705;BME280;28342;42.594;23.414;2022-12-10T07:41:03;93746.00;;;11.17;88.02
42705;BME280;28342;42.594;23.414;2022-12-10T07:43:29;93767.47;;;11.12;88.40
42705;BME280;28342;42.594;23.414;2022-12-10T07:45:54;93768.38;;;11.28;87.54
42705;BME280;28342;42.594;23.414;2022-12-10T07:48:20;93757.78;;;11.28;87.34
42705;BME280;28342;42.594;23.414;2022-12-10T07:50:45;93759.97;;;11.26;87.39
42705;BME280;28342;42.594;23.414;2022-12-10T07:53:11;93771.84;;;11.41;87.70
42705;BME280;28342;42.594;23.414;2022-12-10T07:55:36;93754.91;;;11.33;87.40
42705;BME280;28342;42.594;23.414;2022-12-10T07:58:03;93744.28;;;11.33;87.32
42705;BME280;28342;42.594;23.414;2022-12-10T08:00:28;93746.06;;;11.41;87.15
42705;BME280;28342;42.594;23.414;2022-12-10T08:02:54;93738.88;;;11.42;87.04
42705;BME280;28342;42.594;23.414;2022-12-10T08:05:19;93752.06;;;11.38;88.38
42705;BME280;28342;42.594;23.414;2022-12-10T08:07:45;93755.84;;;11.49;87.25
42705;BME280;28342;42.594;23.414;2022-12-10T08:10:10;93740.34;;;11.51;86.97
42705;BME280;28342;42.594;23.414;2022-12-10T08:12:36;93732.56;;;11.46;87.14
42705;BME280;28342;42.594;23.414;2022-12-10T08:15:01;93725.28;;;11.55;86.49
42705;BME280;28342;42.594;23.414;2022-12-10T08:17:27;93728.81;;;11.47;87.29
42705;BME280;28342;42.594;23.414;2022-12-10T08:19:53;93731.94;;;11.49;87.75
42705;BME280;28342;42.594;23.414;2022-12-10T08:22:20;93721.94;;;11.46;87.82
42705;BME280;28342;42.594;23.414;2022-12-10T08:24:45;93717.09;;;11.60;87.99
42705;BME280;28342;42.594;23.414;2022-12-10T08:27:11;93727.03;;;11.63;87.22
42705;BME280;28342;42.594;23.414;2022-12-10T08:29:36;93699.59;;;11.47;87.94
42705;BME280;28342;42.594;23.414;2022-12-10T08:32:02;93716.22;;;11.56;88.33
42705;BME280;28342;42.594;23.414;2022-12-10T08:34:27;93721.53;;;11.56;88.96
42705;BME280;28342;42.594;23.414;2022-12-10T08:36:53;93704.91;;;11.35;88.30
42705;BME280;28342;42.594;23.414;2022-12-10T08:39:18;93678.38;;;11.35;88.98
42705;BME280;28342;42.594;23.414;2022-12-10T08:41:44;93692.97;;;11.53;88.13
42705;BME280;28342;42.594;23.414;2022-12-10T08:44:11;93687.44;;;11.58;88.57
42705;BME280;28342;42.594;23.414;2022-12-10T08:46:37;93696.19;;;11.59;88.35
42705;BME280;28342;42.594;23.414;2022-12-10T08:49:03;93698.72;;;11.55;89.43
42705;BME280;28342;42.594;23.414;2022-12-10T08:51:29;93688.31;;;11.62;88.59
42705;BME280;28342;42.594;23.414;2022-12-10T08:53:54;93677.13;;;11.45;89.34
42705;BME280;28342;42.594;23.414;2022-12-10T08:56:20;93662.88;;;11.37;89.42
42705;BME280;28342;42.594;23.414;2022-12-10T08:58:45;93656.66;;;11.45;89.27
42705;BME280;28342;42.594;23.414;2022-12-10T09:01:13;93673.63;;;11.53;88.30
42705;BME280;28342;42.594;23.414;2022-12-10T09:03:39;93683.34;;;11.61;87.92
42705;BME280;28342;42.594;23.414;2022-12-10T09:06:06;93678.16;;;11.64;88.36
42705;BME280;28342;42.594;23.414;2022-12-10T09:08:33;93657.34;;;11.30;89.75
42705;BME280;28342;42.594;23.414;2022-12-10T09:11:04;93689.31;;;11.46;89.98
42705;BME280;28342;42.594;23.414;2022-12-10T09:13:30;93680.69;;;11.61;90.00
42705;BME280;28342;42.594;23.414;2022-12-10T09:15:56;93675.69;;;11.72;90.01
42705;BME280;28342;42.594;23.414;2022-12-10T09:18:21;93664.19;;;11.92;89.98
42705;BME280;28342;42.594;23.414;2022-12-10T09:20:46;93669.22;;;12.09;89.71
42705;BME280;28342;42.594;23.414;2022-12-10T09:23:12;93652.34;;;12.30;89.22
42705;BME280;28342;42.594;23.414;2022-12-10T09:25:37;93656.69;;;12.50;87.69
42705;BME280;28342;42.594;23.414;2022-12-10T09:28:03;93664.44;;;12.55;87.61
42705;BME280;28342;42.594;23.414;2022-12-10T09:30:28;93648.66;;;12.62;87.58
42705;BME280;28342;42.594;23.414;2022-12-10T09:32:54;93650.16;;;12.75;86.72
42705;BME280;28342;42.594;23.414;2022-12-10T09:35:19;93629.94;;;12.43;86.96
42705;BME280;28342;42.594;23.414;2022-12-10T09:37:45;93636.97;;;12.51;86.37
42705;BME280;28342;42.594;23.414;2022-12-10T09:40:39;93641.88;;;12.65;85.96
42705;BME280;28342;42.594;23.414;2022-12-10T09:43:28;93635.69;;;12.89;85.52
42705;BME280;28342;42.594;23.414;2022-12-10T09:49:13;93621.75;;;13.11;82.17
42705;BME280;28342;42.594;23.414;2022-12-10T09:51:41;93604.41;;;13.17;81.74
42705;BME280;28342;42.594;23.414;2022-12-10T09:54:35;93609.72;;;13.17;82.11
42705;BME280;28342;42.594;23.414;2022-12-10T09:57:03;93614.28;;;13.16;83.22
42705;BME280;28342;42.594;23.414;2022-12-10T09:59:35;93609.53;;;13.22;83.63
42705;BME280;28342;42.594;23.414;2022-12-10T10:04:36;93610.63;;;13.21;83.36
42705;BME280;28342;42.594;23.414;2022-12-10T10:07:01;93597.88;;;13.14;82.93
42705;BME280;28342;42.594;23.414;2022-12-10T10:09:30;93601.09;;;13.36;83.29
42705;BME280;28342;42.594;23.414;2022-12-10T10:11:57;93595.94;;;13.27;83.04
42705;BME280;28342;42.594;23.414;2022-12-10T10:14:26;93594.13;;;13.31;83.29
42705;BME280;28342;42.594;23.414;2022-12-10T10:17:02;93612.84;;;13.51;82.56
42705;BME280;28342;42.594;23.414;2022-12-10T10:19:30;93607.94;;;13.53;82.14
42705;BME280;28342;42.594;23.414;2022-12-10T10:21:58;93611.44;;;13.57;81.68
42705;BME280;28342;42.594;23.414;2022-12-10T10:24:42;93615.31;;;13.43;81.87
42705;BME280;28342;42.594;23.414;2022-12-10T10:27:16;93598.44;;;13.20;81.94
42705;BME280;28342;42.594;23.414;2022-12-10T10:29:48;93592.56;;;13.30;82.16
42705;BME280;28342;42.594;23.414;2022-12-10T10:32:23;93588.78;;;13.31;82.20
42705;BME280;28342;42.594;23.414;2022-12-10T10:34:58;93599.97;;;13.21;82.87
42705;BME280;28342;42.594;23.414;2022-12-10T10:37:30;93582.44;;;13.36;82.39
42705;BME280;28342;42.594;23.414;2022-12-10T10:39:57;93577.47;;;13.34;82.98
42705;BME280;28342;42.594;23.414;2022-12-10T10:44:52;93558.09;;;13.53;82.39
42705;BME280;28342;42.594;23.414;2022-12-10T10:47:33;93545.97;;;13.56;83.07
42705;BME280;28342;42.594;23.414;2022-12-10T10:49:59;93566.38;;;13.67;81.37
42705;BME280;28342;42.594;23.414;2022-12-10T10:52:28;93556.91;;;13.70;81.63
42705;BME280;28342;42.594;23.414;2022-12-10T10:54:54;93561.53;;;13.73;79.85
42705;BME280;28342;42.594;23.414;2022-12-10T10:57:34;93572.19;;;13.73;79.37
42705;BME280;28342;42.594;23.414;2022-12-10T11:00:19;93552.84;;;13.76;80.47
42705;BME280;28342;42.594;23.414;2022-12-10T11:02:46;93538.69;;;13.72;77.96
42705;BME280;28342;42.594;23.414;2022-12-10T11:07:43;93528.66;;;14.04;78.86
42705;BME280;28342;42.594;23.414;2022-12-10T11:10:23;93525.91;;;14.20;78.01
42705;BME280;28342;42.594;23.414;2022-12-10T11:17:50;93496.47;;;14.35;75.99
42705;BME280;28342;42.594;23.414;2022-12-10T11:20:19;93492.94;;;14.51;74.56
42705;BME280;28342;42.594;23.414;2022-12-10T11:23:00;93492.47;;;14.68;74.73
42705;BME280;28342;42.594;23.414;2022-12-10T11:28:57;93496.88;;;15.06;72.74
42705;BME280;28342;42.594;23.414;2022-12-10T11:31:32;93490.00;;;15.32;67.53
42705;BME280;28342;42.594;23.414;2022-12-10T11:36:45;93482.16;;;15.46;67.98
42705;BME280;28342;42.594;23.414;2022-12-10T11:42:14;93486.66;;;15.65;71.56
42705;BME280;28342;42.594;23.414;2022-12-10T11:48:09;93483.19;;;15.64;73.33
42705;BME280;28342;42.594;23.414;2022-12-10T11:50:53;93477.31;;;15.55;71.01
42705;BME280;28342;42.594;23.414;2022-12-10T11:53:29;93490.97;;;15.76;71.44
42705;BME280;28342;42.594;23.414;2022-12-10T12:04:28;93472.78;;;15.29;74.84
42705;BME280;28342;42.594;23.414;2022-12-10T12:07:06;93465.66;;;15.10;75.71
42705;BME280;28342;42.594;23.414;2022-12-10T12:14:58;93458.47;;;14.88;76.44
42705;BME280;28342;42.594;23.414;2022-12-10T12:20:39;93450.91;;;14.93;76.99
42705;BME280;28342;42.594;23.414;2022-12-10T12:25:39;93459.47;;;14.80;77.33
42705;BME280;28342;42.594;23.414;2022-12-10T12:28:15;93471.16;;;14.94;77.12
42705;BME280;28342;42.594;23.414;2022-12-10T12:30:47;93464.31;;;14.97;77.52
42705;BME280;28342;42.594;23.414;2022-12-10T12:33:25;93444.00;;;14.89;78.08
42705;BME280;28342;42.594;23.414;2022-12-10T12:39:00;93440.78;;;14.80;77.37
42705;BME280;28342;42.594;23.414;2022-12-10T12:47:38;93400.34;;;14.78;77.63
42705;BME280;28342;42.594;23.414;2022-12-10T12:50:20;93395.13;;;14.58;78.64
42705;BME280;28342;42.594;23.414;2022-12-10T12:52:55;93407.94;;;14.76;78.02
42705;BME280;28342;42.594;23.414;2022-12-10T12:55:32;93405.69;;;14.78;78.37
42705;BME280;28342;42.594;23.414;2022-12-10T12:58:20;93378.94;;;14.74;77.95
42705;BME280;28342;42.594;23.414;2022-12-10T13:00:51;93391.13;;;14.72;78.05
42705;BME280;28342;42.594;23.414;2022-12-10T13:03:36;93399.63;;;14.81;77.62
42705;BME280;28342;42.594;23.414;2022-12-10T13:06:13;93390.78;;;14.77;77.96
42705;BME280;28342;42.594;23.414;2022-12-10T13:08:44;93391.53;;;14.74;78.13
42705;BME280;28342;42.594;23.414;2022-12-10T13:13:40;93388.75;;;14.67;78.55
42705;BME280;28342;42.594;23.414;2022-12-10T13:27:05;93383.50;;;14.74;79.13
42705;BME280;28342;42.594;23.414;2022-12-10T13:32:15;93363.75;;;14.29;80.35
42705;BME280;28342;42.594;23.414;2022-12-10T13:34:41;93340.66;;;14.14;81.36
42705;BME280;28342;42.594;23.414;2022-12-10T13:40:00;93355.69;;;14.48;80.15
42705;BME280;28342;42.594;23.414;2022-12-10T13:42:31;93347.28;;;14.46;80.10
42705;BME280;28342;42.594;23.414;2022-12-10T13:50:58;93326.63;;;14.43;79.91
42705;BME280;28342;42.594;23.414;2022-12-10T13:59:30;93338.16;;;14.47;80.21
42705;BME280;28342;42.594;23.414;2022-12-10T14:07:47;93322.72;;;14.37;80.41
42705;BME280;28342;42.594;23.414;2022-12-10T14:10:17;93334.31;;;14.45;80.55
42705;BME280;28342;42.594;23.414;2022-12-10T14:12:44;93327.47;;;14.47;80.23
42705;BME280;28342;42.594;23.414;2022-12-10T14:15:21;93335.47;;;14.47;80.21
42705;BME280;28342;42.594;23.414;2022-12-10T14:17:50;93307.22;;;14.20;80.61
42705;BME280;28342;42.594;23.414;2022-12-10T14:20:22;93323.75;;;14.29;80.75
42705;BME280;28342;42.594;23.414;2022-12-10T14:22:50;93336.41;;;14.35;80.73
42705;BME280;28342;42.594;23.414;2022-12-10T14:25:20;93338.72;;;14.37;80.47
42705;BME280;28342;42.594;23.414;2022-12-10T14:27:48;93324.03;;;14.24;80.64
42705;BME280;28342;42.594;23.414;2022-12-10T14:32:40;93310.47;;;13.83;82.64
42705;BME280;28342;42.594;23.414;2022-12-10T14:35:10;93286.75;;;13.78;81.11
42705;BME280;28342;42.594;23.414;2022-12-10T14:37:41;93292.25;;;13.89;80.15
42705;BME280;28342;42.594;23.414;2022-12-10T14:40:08;93272.75;;;13.81;80.46
42705;BME280;28342;42.594;23.414;2022-12-10T14:42:38;93277.72;;;13.83;80.49
42705;BME280;28342;42.594;23.414;2022-12-10T14:45:05;93277.03;;;13.89;80.29
42705;BME280;28342;42.594;23.414;2022-12-10T14:47:38;93279.44;;;13.94;80.33
42705;BME280;28342;42.594;23.414;2022-12-10T14:50:09;93273.25;;;13.90;79.31
42705;BME280;28342;42.594;23.414;2022-12-10T14:52:42;93257.75;;;13.73;78.31